Minneapolis, Minnesota
Traffic Map
Current Weather Conditions
Minneapolis, Minnesota
Scattered Clouds
Scattered Clouds
26°
Feels Like: 26°
Wind Chill: 26° Ceiling: Unl
Heat Index: 26° Visibility: 10mi
Dew Point: 11° Wind: 0mph
Humidity: 38% Direction: ° ()
Pressure: 29.98in Gusts: 0mph
Raw Report DataKMSP 280153Z 00000KT 10SM SCT300 26/11 A2998 RMK AO2 SLP149 T02610106
Traffic Incident Summary
Active as of:
Severity:
Category:
InformationThere was an issue retrieving the traffic information for this location. Please try a different location or try again shortly.
Advertisements
Track Severe Weather on mobile